Time;durP1;ratioP1;P1;durP2;ratioP2;P2;SDS_P1;SDS_P2;PMS_P1;PMS_P2;Temp;Humidity;BMP_temperature;BMP_pressure;BME280_temperature;BME280_humidity;BME280_pressure;Samples;Min_cycle;Max_cycle;Signal;HPM_P1;HPM_P2
2024/04/16 00:01:48;;;;;;;1999.90;999.90;;;;;;;;;;5481747;26;20092;-82
2024/04/16 00:04:17;;;;;;;1999.90;999.90;;;;;;;;;;5483624;26;20014;-81
2024/04/16 00:06:42;;;;;;;1999.90;999.90;;;;;;;;;;5482585;26;20037;-81
2024/04/16 00:09:11;;;;;;;1999.90;999.90;;;;;;;;;;5484837;26;20711;-81
2024/04/16 00:11:38;;;;;;;1999.90;999.90;;;;;;;;;;5480316;26;20014;-83
2024/04/16 00:14:06;;;;;;;1999.90;999.90;;;;;;;;;;5482063;26;20377;-81
2024/04/16 00:16:34;;;;;;;1999.90;999.90;;;;;;;;;;5481252;26;20013;-81
2024/04/16 00:19:02;;;;;;;1999.90;999.90;;;;;;;;;;5482229;26;20002;-81
2024/04/16 00:21:28;;;;;;;1999.90;999.90;;;;;;;;;;5481106;26;20006;-81
2024/04/16 00:23:56;;;;;;;1999.90;999.90;;;;;;;;;;5483244;26;21117;-82
2024/04/16 00:26:22;;;;;;;1999.90;999.90;;;;;;;;;;5477604;26;19998;-81
2024/04/16 00:28:50;;;;;;;1999.90;999.90;;;;;;;;;;5481454;26;20017;-81
2024/04/16 00:31:16;;;;;;;1999.90;999.90;;;;;;;;;;5476791;26;20103;-81
2024/04/16 00:33:47;;;;;;;1999.90;999.90;;;;;;;;;;5478468;26;20558;-81
2024/04/16 00:36:12;;;;;;;1999.90;999.90;;;;;;;;;;5482208;26;20017;-81
2024/04/16 00:38:40;;;;;;;1999.90;999.90;;;;;;;;;;5484798;26;20440;-81
2024/04/16 00:41:06;;;;;;;1999.90;999.90;;;;;;;;;;5480651;26;20013;-82
2024/04/16 00:44:00;;;;;;;1999.90;999.90;;;;;;;;;;5484071;26;20079;-80
2024/04/16 00:46:25;;;;;;;1999.90;999.90;;;;;;;;;;5483527;26;20010;-83
2024/04/16 00:48:57;;;;;;;1999.90;999.90;;;;;;;;;;5484571;26;20002;-82
2024/04/16 00:51:23;;;;;;;1999.90;999.90;;;;;;;;;;5483708;26;20104;-84
2024/04/16 00:53:51;;;;;;;1999.90;999.90;;;;;;;;;;5479794;26;20006;-82
2024/04/16 00:56:17;;;;;;;1999.90;999.90;;;;;;;;;;5483621;26;20017;-82
2024/04/16 00:58:46;;;;;;;1999.90;999.90;;;;;;;;;;5480736;26;20002;-83
2024/04/16 01:01:12;;;;;;;1999.90;999.90;;;;;;;;;;5481215;26;20009;-81
2024/04/16 01:03:43;;;;;;;1999.90;999.90;;;;;;;;;;5481062;26;20010;-83
2024/04/16 01:06:11;;;;;;;1999.90;999.90;;;;;;;;;;5484081;26;20018;-80
2024/04/16 01:08:39;;;;;;;1999.90;999.90;;;;;;;;;;5479507;26;20002;-82
2024/04/16 01:11:05;;;;;;;1999.90;999.90;;;;;;;;;;5481561;26;20060;-82
2024/04/16 01:13:33;;;;;;;1999.90;999.90;;;;;;;;;;5486166;26;21127;-83
2024/04/16 01:15:59;;;;;;;1999.90;999.90;;;;;;;;;;5481632;26;20019;-83
2024/04/16 01:18:27;;;;;;;1999.90;999.90;;;;;;;;;;5482000;26;20016;-84
2024/04/16 01:20:52;;;;;;;1999.90;999.90;;;;;;;;;;5482059;26;20497;-84
2024/04/16 01:23:23;;;;;;;1999.90;999.90;;;;;;;;;;5482411;26;20074;-85
2024/04/16 01:25:49;;;;;;;1999.90;999.90;;;;;;;;;;5483590;26;20002;-83
2024/04/16 01:28:17;;;;;;;1999.90;999.90;;;;;;;;;;5484002;26;20075;-84
2024/04/16 01:30:42;;;;;;;1999.90;999.90;;;;;;;;;;5481104;26;20017;-83
2024/04/16 01:33:11;;;;;;;1999.90;999.90;;;;;;;;;;5479654;26;20010;-82
2024/04/16 01:35:36;;;;;;;1999.90;999.90;;;;;;;;;;5483168;26;20009;-82
2024/04/16 01:38:05;;;;;;;1999.90;999.90;;;;;;;;;;5477828;26;20410;-83
2024/04/16 01:40:33;;;;;;;1999.90;999.90;;;;;;;;;;5477016;26;19998;-83
2024/04/16 01:43:07;;;;;;;1999.90;999.90;;;;;;;;;;5485412;26;20009;-85
2024/04/16 01:45:32;;;;;;;1999.90;999.90;;;;;;;;;;5487159;26;20009;-83
2024/04/16 01:48:00;;;;;;;1999.90;999.90;;;;;;;;;;5485497;26;20022;-82
2024/04/16 01:50:26;;;;;;;1999.90;999.90;;;;;;;;;;5485091;26;20037;-84
2024/04/16 01:52:54;;;;;;;1999.90;999.90;;;;;;;;;;5482100;26;20002;-84
2024/04/16 01:55:20;;;;;;;1999.90;999.90;;;;;;;;;;5486037;26;20030;-82
2024/04/16 01:57:51;;;;;;;1999.90;999.90;;;;;;;;;;5478844;26;20084;-85
2024/04/16 02:00:16;;;;;;;1999.90;999.90;;;;;;;;;;5483579;26;20046;-85
2024/04/16 02:02:45;;;;;;;1999.90;999.90;;;;;;;;;;5482379;26;20552;-82
2024/04/16 02:05:10;;;;;;;1999.90;999.90;;;;;;;;;;5486002;26;20477;-81
2024/04/16 02:07:38;;;;;;;1999.90;999.90;;;;;;;;;;5484275;26;20001;-83
2024/04/16 02:10:09;;;;;;;1999.90;999.90;;;;;;;;;;5478394;26;20006;-84
2024/04/16 02:12:37;;;;;;;1999.90;999.90;;;;;;;;;;5479852;26;20013;-84
2024/04/16 02:15:06;;;;;;;1999.90;999.90;;;;;;;;;;5482017;26;20539;-84
2024/04/16 02:17:34;;;;;;;1999.90;999.90;;;;;;;;;;5480847;26;20233;-84
2024/04/16 02:20:00;;;;;;;1999.90;999.90;;;;;;;;;;5482729;26;20516;-82
2024/04/16 02:22:28;;;;;;;1999.90;999.90;;;;;;;;;;5485291;26;20010;-83
2024/04/16 02:24:54;;;;;;;1999.90;999.90;;;;;;;;;;5479071;26;20010;-82
2024/04/16 02:27:22;;;;;;;1999.90;999.90;;;;;;;;;;5484968;26;20065;-84
2024/04/16 02:29:47;;;;;;;1999.90;999.90;;;;;;;;;;5481890;26;20568;-81
2024/04/16 02:32:18;;;;;;;1999.90;999.90;;;;;;;;;;5481537;26;20010;-82
2024/04/16 02:34:44;;;;;;;1999.90;999.90;;;;;;;;;;5478021;26;20045;-80
2024/04/16 02:37:14;;;;;;;1999.90;999.90;;;;;;;;;;5478238;26;19998;-84
2024/04/16 02:39:39;;;;;;;1999.90;999.90;;;;;;;;;;5479046;26;20074;-83
2024/04/16 02:42:08;;;;;;;1999.90;999.90;;;;;;;;;;5480709;26;20010;-83
2024/04/16 02:44:33;;;;;;;1999.90;999.90;;;;;;;;;;5483002;26;19998;-82
2024/04/16 02:47:02;;;;;;;1999.90;999.90;;;;;;;;;;5478211;26;20075;-82
2024/04/16 02:49:30;;;;;;;1999.90;999.90;;;;;;;;;;5482880;26;20017;-84
2024/04/16 02:51:58;;;;;;;1999.90;999.90;;;;;;;;;;5484879;26;20014;-81
2024/04/16 02:54:23;;;;;;;1999.90;999.90;;;;;;;;;;5474091;26;20038;-82
2024/04/16 02:56:52;;;;;;;1999.90;999.90;;;;;;;;;;5482756;26;20102;-84
2024/04/16 02:59:17;;;;;;;1999.90;999.90;;;;;;;;;;5480728;26;20059;-80
2024/04/16 03:01:46;;;;;;;1999.90;999.90;;;;;;;;;;5478213;26;20002;-83
2024/04/16 03:04:11;;;;;;;1999.90;999.90;;;;;;;;;;5479707;26;20030;-83
2024/04/16 03:06:42;;;;;;;1999.90;999.90;;;;;;;;;;5485530;26;20046;-83
2024/04/16 03:09:08;;;;;;;1999.90;999.90;;;;;;;;;;5477208;26;19998;-83
2024/04/16 03:11:36;;;;;;;1999.90;999.90;;;;;;;;;;5478944;26;20522;-85
2024/04/16 03:14:02;;;;;;;1999.90;999.90;;;;;;;;;;5480944;26;20068;-81
2024/04/16 03:16:30;;;;;;;1999.90;999.90;;;;;;;;;;5476174;26;20033;-82
2024/04/16 03:18:56;;;;;;;1999.90;999.90;;;;;;;;;;5480799;26;20010;-82
2024/04/16 03:21:24;;;;;;;1999.90;999.90;;;;;;;;;;5479761;26;20545;-82
2024/04/16 03:23:52;;;;;;;1999.90;999.90;;;;;;;;;;5475814;26;20082;-80
2024/04/16 03:26:20;;;;;;;1999.90;999.90;;;;;;;;;;5479179;26;20079;-80
2024/04/16 03:28:46;;;;;;;1999.90;999.90;;;;;;;;;;5477457;26;20007;-81
2024/04/16 03:31:14;;;;;;;1999.90;999.90;;;;;;;;;;5480422;26;20002;-79
2024/04/16 03:33:40;;;;;;;1999.90;999.90;;;;;;;;;;5483325;26;20050;-79
2024/04/16 03:36:09;;;;;;;1999.90;999.90;;;;;;;;;;5481449;26;20333;-81
2024/04/16 03:38:37;;;;;;;1999.90;999.90;;;;;;;;;;5485305;26;20038;-80
2024/04/16 03:41:09;;;;;;;1999.90;999.90;;;;;;;;;;5484507;26;20096;-80
2024/04/16 03:43:37;;;;;;;1999.90;999.90;;;;;;;;;;5480828;26;20018;-80
2024/04/16 03:46:04;;;;;;;1999.90;999.90;;;;;;;;;;5483056;26;20099;-79
2024/04/16 03:48:32;;;;;;;1999.90;999.90;;;;;;;;;;5482003;26;20030;-80
2024/04/16 03:50:58;;;;;;;1999.90;999.90;;;;;;;;;;5482233;26;19998;-80
2024/04/16 03:53:26;;;;;;;1999.90;999.90;;;;;;;;;;5478668;26;20521;-81
2024/04/16 03:55:52;;;;;;;1999.90;999.90;;;;;;;;;;5483328;26;20070;-82
2024/04/16 03:58:22;;;;;;;1999.90;999.90;;;;;;;;;;5484831;26;20010;-81
2024/04/16 04:01:03;;;;;;;1999.90;999.90;;;;;;;;;;5483793;26;20073;-81
2024/04/16 04:03:32;;;;;;;1999.90;999.90;;;;;;;;;;5482657;26;20006;-79
2024/04/16 04:05:57;;;;;;;1999.90;999.90;;;;;;;;;;5476939;26;20071;-78
2024/04/16 04:08:26;;;;;;;1999.90;999.90;;;;;;;;;;5483272;26;20007;-79
2024/04/16 04:10:52;;;;;;;1999.90;999.90;;;;;;;;;;5483002;26;20002;-80
2024/04/16 04:13:23;;;;;;;1999.90;999.90;;;;;;;;;;5483874;26;20082;-80
2024/04/16 04:15:49;;;;;;;1999.90;999.90;;;;;;;;;;5482336;26;20099;-80
2024/04/16 04:18:17;;;;;;;1999.90;999.90;;;;;;;;;;5486969;26;20010;-80
2024/04/16 04:20:46;;;;;;;1999.90;999.90;;;;;;;;;;5480440;26;20048;-79
2024/04/16 04:23:14;;;;;;;1999.90;999.90;;;;;;;;;;5484480;26;20016;-79
2024/04/16 04:25:40;;;;;;;1999.90;999.90;;;;;;;;;;5489590;26;20038;-79
2024/04/16 04:28:08;;;;;;;1999.90;999.90;;;;;;;;;;5480083;26;20003;-79
2024/04/16 04:30:36;;;;;;;1999.90;999.90;;;;;;;;;;5486251;26;20010;-79
2024/04/16 04:33:05;;;;;;;1999.90;999.90;;;;;;;;;;5480562;26;20074;-79
2024/04/16 04:35:30;;;;;;;1999.90;999.90;;;;;;;;;;5479906;26;20017;-80
2024/04/16 04:37:58;;;;;;;1999.90;999.90;;;;;;;;;;5478518;26;20452;-80
2024/04/16 04:40:24;;;;;;;1999.90;999.90;;;;;;;;;;5480562;26;20050;-80
2024/04/16 04:42:55;;;;;;;1999.90;999.90;;;;;;;;;;5478624;26;20527;-80
2024/04/16 04:45:20;;;;;;;1999.90;999.90;;;;;;;;;;5472918;26;20360;-81
2024/04/16 04:47:51;;;;;;;1999.90;999.90;;;;;;;;;;5475588;26;20002;-80
2024/04/16 04:50:17;;;;;;;1999.90;999.90;;;;;;;;;;5481732;26;20384;-81
2024/04/16 04:52:45;;;;;;;1999.90;999.90;;;;;;;;;;5481672;26;20010;-82
2024/04/16 04:55:10;;;;;;;1999.90;999.90;;;;;;;;;;5479413;26;20017;-81
2024/04/16 04:57:38;;;;;;;1999.90;999.90;;;;;;;;;;5484377;26;20122;-79
2024/04/16 05:00:05;;;;;;;1999.90;999.90;;;;;;;;;;5473702;26;20075;-80
2024/04/16 05:02:34;;;;;;;1999.90;999.90;;;;;;;;;;5483071;26;20041;-80
2024/04/16 05:05:02;;;;;;;1999.90;999.90;;;;;;;;;;5481490;26;20103;-79
2024/04/16 05:07:30;;;;;;;1999.90;999.90;;;;;;;;;;5473166;26;20010;-78
2024/04/16 05:09:56;;;;;;;1999.90;999.90;;;;;;;;;;5483453;26;20451;-80
2024/04/16 05:13:16;;;;;;;1999.90;999.90;;;;;;;;;;5482338;26;20009;-80
2024/04/16 05:15:41;;;;;;;1999.90;999.90;;;;;;;;;;5481374;26;20430;-81
2024/04/16 05:18:09;;;;;;;1999.90;999.90;;;;;;;;;;5479169;26;19998;-79
2024/04/16 05:20:38;;;;;;;1999.90;999.90;;;;;;;;;;5480248;26;20003;-80
2024/04/16 05:23:06;;;;;;;1999.90;999.90;;;;;;;;;;5477028;26;20006;-81
2024/04/16 05:25:32;;;;;;;1999.90;999.90;;;;;;;;;;5482062;26;20107;-81
2024/04/16 05:28:00;;;;;;;1999.90;999.90;;;;;;;;;;5482199;26;20784;-80
2024/04/16 05:30:26;;;;;;;1999.90;999.90;;;;;;;;;;5478803;26;20096;-80
2024/04/16 05:32:55;;;;;;;1999.90;999.90;;;;;;;;;;5481389;26;20002;-80
2024/04/16 05:35:21;;;;;;;1999.90;999.90;;;;;;;;;;5483000;26;20010;-80
2024/04/16 05:37:52;;;;;;;1999.90;999.90;;;;;;;;;;5480774;26;20021;-79
2024/04/16 05:40:17;;;;;;;1999.90;999.90;;;;;;;;;;5482876;26;20747;-80
2024/04/16 05:42:49;;;;;;;1999.90;999.90;;;;;;;;;;5481594;26;20010;-80
2024/04/16 05:45:16;;;;;;;1999.90;999.90;;;;;;;;;;5478491;26;20002;-79
2024/04/16 05:47:44;;;;;;;1999.90;999.90;;;;;;;;;;5483521;26;20013;-80
2024/04/16 05:50:10;;;;;;;1999.90;999.90;;;;;;;;;;5477787;26;20099;-80
2024/04/16 05:52:38;;;;;;;1999.90;999.90;;;;;;;;;;5483794;26;20010;-81
2024/04/16 05:55:08;;;;;;;1999.90;999.90;;;;;;;;;;5475960;26;20507;-81
2024/04/16 05:57:36;;;;;;;1999.90;999.90;;;;;;;;;;5483131;26;20013;-80
2024/04/16 06:00:02;;;;;;;1999.90;999.90;;;;;;;;;;5478865;26;20092;-81
2024/04/16 06:02:30;;;;;;;1999.90;999.90;;;;;;;;;;5482471;26;20449;-80
2024/04/16 06:04:55;;;;;;;1999.90;999.90;;;;;;;;;;5477039;26;20099;-80
2024/04/16 06:07:24;;;;;;;1999.90;999.90;;;;;;;;;;5481574;26;20457;-81
2024/04/16 06:09:49;;;;;;;1999.90;999.90;;;;;;;;;;5481356;26;20020;-80
2024/04/16 06:12:20;;;;;;;1999.90;999.90;;;;;;;;;;5483354;26;20002;-79
2024/04/16 06:14:46;;;;;;;1999.90;999.90;;;;;;;;;;5480898;26;20845;-80
2024/04/16 06:17:14;;;;;;;1999.90;999.90;;;;;;;;;;5480694;26;20078;-79
2024/04/16 06:19:43;;;;;;;1999.90;999.90;;;;;;;;;;5480711;26;20037;-78
2024/04/16 06:22:11;;;;;;;1999.90;999.90;;;;;;;;;;5479346;26;19998;-78
2024/04/16 06:24:37;;;;;;;1999.90;999.90;;;;;;;;;;5479525;26;20007;-79
2024/04/16 06:27:05;;;;;;;1999.90;999.90;;;;;;;;;;5481885;26;20082;-79
2024/04/16 06:29:37;;;;;;;1999.90;999.90;;;;;;;;;;5480562;26;20017;-78
2024/04/16 06:32:05;;;;;;;1999.90;999.90;;;;;;;;;;5483278;26;20013;-78
2024/04/16 06:34:31;;;;;;;1999.90;999.90;;;;;;;;;;5484931;26;20017;-79
2024/04/16 06:36:59;;;;;;;1999.90;999.90;;;;;;;;;;5483450;26;20006;-79
2024/04/16 06:39:25;;;;;;;1999.90;999.90;;;;;;;;;;5483986;26;20088;-78
2024/04/16 06:41:53;;;;;;;1999.90;999.90;;;;;;;;;;5485606;26;20010;-79
2024/04/16 06:44:19;;;;;;;1999.90;999.90;;;;;;;;;;5483846;26;20081;-79
2024/04/16 06:46:50;;;;;;;1999.90;999.90;;;;;;;;;;5484171;26;20025;-79
2024/04/16 06:49:15;;;;;;;1999.90;999.90;;;;;;;;;;5483335;26;20566;-79
2024/04/16 06:51:44;;;;;;;1999.90;999.90;;;;;;;;;;5486698;26;20002;-79
2024/04/16 06:54:09;;;;;;;1999.90;999.90;;;;;;;;;;5484069;26;20484;-79
2024/04/16 06:56:38;;;;;;;1999.90;999.90;;;;;;;;;;5485595;26;20010;-79
2024/04/16 06:59:03;;;;;;;1999.90;999.90;;;;;;;;;;5487926;26;20010;-80
2024/04/16 07:01:31;;;;;;;1999.90;999.90;;;;;;;;;;5482433;26;20080;-80
2024/04/16 07:04:01;;;;;;;1999.90;999.90;;;;;;;;;;5482893;26;20092;-79
2024/04/16 07:06:29;;;;;;;1999.90;999.90;;;;;;;;;;5482568;26;19998;-79
2024/04/16 07:08:55;;;;;;;1999.90;999.90;;;;;;;;;;5485546;26;20043;-79
2024/04/16 07:11:23;;;;;;;1999.90;999.90;;;;;;;;;;5484404;26;20002;-80
2024/04/16 07:13:49;;;;;;;1999.90;999.90;;;;;;;;;;5482108;26;20676;-79
2024/04/16 07:16:17;;;;;;;1999.90;999.90;;;;;;;;;;5481006;26;20017;-79
2024/04/16 07:18:42;;;;;;;1999.90;999.90;;;;;;;;;;5485621;26;20107;-79
2024/04/16 07:21:13;;;;;;;1999.90;999.90;;;;;;;;;;5480712;26;20558;-80
2024/04/16 07:23:39;;;;;;;1999.90;999.90;;;;;;;;;;5482906;26;20003;-79
2024/04/16 07:26:07;;;;;;;1999.90;999.90;;;;;;;;;;5484551;26;20074;-79
2024/04/16 07:28:33;;;;;;;1999.90;999.90;;;;;;;;;;5483608;26;20030;-80
2024/04/16 07:31:01;;;;;;;1999.90;999.90;;;;;;;;;;5475936;26;20512;-80
2024/04/16 07:33:26;;;;;;;1999.90;999.90;;;;;;;;;;5487822;26;20085;-79
2024/04/16 07:35:55;;;;;;;1999.90;999.90;;;;;;;;;;5492703;26;20030;-81
2024/04/16 07:38:23;;;;;;;1999.90;999.90;;;;;;;;;;5480675;26;20894;-87
2024/04/16 07:40:56;;;;;;;1999.90;999.90;;;;;;;;;;5484059;26;20017;-84
2024/04/16 07:43:23;;;;;;;1999.90;999.90;;;;;;;;;;5479505;26;20010;-89
2024/04/16 07:45:51;;;;;;;1999.90;999.90;;;;;;;;;;5483207;26;20003;-85
2024/04/16 07:48:17;;;;;;;1999.90;999.90;;;;;;;;;;5485119;26;20069;-77
2024/04/16 07:50:48;;;;;;;1999.90;999.90;;;;;;;;;;5484450;26;20002;-77
2024/04/16 07:53:14;;;;;;;1999.90;999.90;;;;;;;;;;5482043;26;20013;-77
2024/04/16 07:55:45;;;;;;;1999.90;999.90;;;;;;;;;;5472425;26;19995;-79
2024/04/16 07:58:11;;;;;;;1999.90;999.90;;;;;;;;;;5484190;26;20035;-78
2024/04/16 08:00:40;;;;;;;1999.90;999.90;;;;;;;;;;5484282;26;20078;-76
2024/04/16 08:03:07;;;;;;;1999.90;999.90;;;;;;;;;;5481177;26;20009;-80
2024/04/16 08:05:35;;;;;;;1999.90;999.90;;;;;;;;;;5469230;26;20464;-79
2024/04/16 08:08:01;;;;;;;1999.90;999.90;;;;;;;;;;5483490;26;20096;-78
2024/04/16 08:10:29;;;;;;;1999.90;999.90;;;;;;;;;;5479338;26;20014;-77
2024/04/16 08:12:57;;;;;;;1999.90;999.90;;;;;;;;;;5477281;26;20002;-80
2024/04/16 08:15:25;;;;;;;1999.90;999.90;;;;;;;;;;5480858;26;20006;-77
2024/04/16 08:17:51;;;;;;;1999.90;999.90;;;;;;;;;;5483367;26;20002;-78
2024/04/16 08:20:19;;;;;;;1999.90;999.90;;;;;;;;;;5481332;26;20087;-79
2024/04/16 08:22:45;;;;;;;1999.90;999.90;;;;;;;;;;5481489;26;20006;-80
2024/04/16 08:25:13;;;;;;;1999.90;999.90;;;;;;;;;;5481182;26;20500;-77
2024/04/16 08:27:39;;;;;;;1999.90;999.90;;;;;;;;;;5480810;26;20002;-77
2024/04/16 08:30:12;;;;;;;1999.90;999.90;;;;;;;;;;5479503;26;20044;-79
2024/04/16 08:32:37;;;;;;;1999.90;999.90;;;;;;;;;;5483157;26;20002;-78
2024/04/16 08:35:06;;;;;;;1999.90;999.90;;;;;;;;;;5483208;26;20027;-79
2024/04/16 08:37:32;;;;;;;1999.90;999.90;;;;;;;;;;5480710;26;20006;-81
2024/04/16 08:40:20;;;;;;;1999.90;999.90;;;;;;;;;;5449573;26;20738;-79
2024/04/16 08:42:45;;;;;;;1999.90;999.90;;;;;;;;;;5445821;26;20054;-78
2024/04/16 08:45:16;;;;;;;1999.90;999.90;;;;;;;;;;5445920;26;20018;-79
2024/04/16 08:47:43;;;;;;;1999.90;999.90;;;;;;;;;;5441195;26;20063;-78
2024/04/16 08:50:12;;;;;;;1999.90;999.90;;;;;;;;;;5441319;26;19999;-79
2024/04/16 08:52:39;;;;;;;1999.90;999.90;;;;;;;;;;5449644;26;20035;-78
2024/04/16 08:55:09;;;;;;;1999.90;999.90;;;;;;;;;;5444960;26;20017;-79
2024/04/16 08:57:40;;;;;;;1999.90;999.90;;;;;;;;;;5444539;26;20050;-79
2024/04/16 09:00:09;;;;;;;1999.90;999.90;;;;;;;;;;5450106;26;20468;-79
2024/04/16 09:02:36;;;;;;;1999.90;999.90;;;;;;;;;;5442236;26;20080;-79
2024/04/16 09:05:05;;;;;;;1999.90;999.90;;;;;;;;;;5443916;26;20687;-78
2024/04/16 09:07:33;;;;;;;1999.90;999.90;;;;;;;;;;5443417;26;20092;-79
2024/04/16 09:10:01;;;;;;;1999.90;999.90;;;;;;;;;;5452723;26;19999;-77
2024/04/16 09:12:30;;;;;;;1999.90;999.90;;;;;;;;;;5442871;26;20000;-79
2024/04/16 09:15:00;;;;;;;1999.90;999.90;;;;;;;;;;5443421;26;20007;-79
2024/04/16 09:17:26;;;;;;;1999.90;999.90;;;;;;;;;;5447148;26;20018;-80
2024/04/16 09:20:02;;;;;;;1999.90;999.90;;;;;;;;;;5444535;26;20010;-79
2024/04/16 09:22:29;;;;;;;1999.90;999.90;;;;;;;;;;5439223;26;20495;-80
2024/04/16 09:25:07;;;;;;;1999.90;999.90;;;;;;;;;;5451161;26;20021;-79
2024/04/16 09:27:32;;;;;;;1999.90;999.90;;;;;;;;;;5442239;26;20019;-79
2024/04/16 09:30:09;;;;;;;1999.90;999.90;;;;;;;;;;5448754;26;20007;-80
2024/04/16 09:32:35;;;;;;;1999.90;999.90;;;;;;;;;;5451693;26;20010;-80
2024/04/16 09:35:04;;;;;;;1999.90;999.90;;;;;;;;;;5448220;26;20007;-79
2024/04/16 09:37:30;;;;;;;1999.90;999.90;;;;;;;;;;5448783;26;20014;-79
2024/04/16 09:40:01;;;;;;;1999.90;999.90;;;;;;;;;;5441793;26;20045;-81
2024/04/16 09:42:27;;;;;;;1999.90;999.90;;;;;;;;;;5443697;26;20044;-79
2024/04/16 09:44:57;;;;;;;1999.90;999.90;;;;;;;;;;5447254;26;20058;-80
2024/04/16 09:47:25;;;;;;;1999.90;999.90;;;;;;;;;;5444443;26;20034;-80
2024/04/16 09:49:55;;;;;;;1999.90;999.90;;;;;;;;;;5444148;26;20014;-79
2024/04/16 09:52:21;;;;;;;1999.90;999.90;;;;;;;;;;5438126;26;20348;-79
2024/04/16 09:54:51;;;;;;;1999.90;999.90;;;;;;;;;;5426670;26;20014;-80
2024/04/16 09:57:19;;;;;;;1999.90;999.90;;;;;;;;;;5424743;26;20022;-80
2024/04/16 09:59:48;;;;;;;1999.90;999.90;;;;;;;;;;5425547;26;20476;-78
2024/04/16 10:02:13;;;;;;;1999.90;999.90;;;;;;;;;;5424603;26;20003;-78
2024/04/16 10:04:45;;;;;;;1999.90;999.90;;;;;;;;;;5431310;26;20338;-79
2024/04/16 10:07:11;;;;;;;1999.90;999.90;;;;;;;;;;5427113;26;20044;-77
2024/04/16 10:09:39;;;;;;;1999.90;999.90;;;;;;;;;;5431769;26;20423;-79
2024/04/16 10:12:08;;;;;;;1999.90;999.90;;;;;;;;;;5435334;26;19999;-78
2024/04/16 10:14:38;;;;;;;1999.90;999.90;;;;;;;;;;5428543;26;20048;-79
2024/04/16 10:17:03;;;;;;;1999.90;999.90;;;;;;;;;;5426364;26;20019;-80
2024/04/16 10:19:32;;;;;;;1999.90;999.90;;;;;;;;;;5427006;26;19994;-81
2024/04/16 10:22:02;;;;;;;1999.90;999.90;;;;;;;;;;5429486;26;20003;-80
2024/04/16 10:24:31;;;;;;;1999.90;999.90;;;;;;;;;;5433857;26;20000;-80
2024/04/16 10:26:57;;;;;;;1999.90;999.90;;;;;;;;;;5424697;26;20000;-80
2024/04/16 10:29:27;;;;;;;1999.90;999.90;;;;;;;;;;5433888;26;19999;-81
2024/04/16 10:31:54;;;;;;;1999.90;999.90;;;;;;;;;;5435414;26;20019;-82
2024/04/16 10:34:23;;;;;;;1999.90;999.90;;;;;;;;;;5426376;26;20465;-81
2024/04/16 10:36:50;;;;;;;1999.90;999.90;;;;;;;;;;5432400;26;20353;-81
2024/04/16 10:39:21;;;;;;;1999.90;999.90;;;;;;;;;;5434471;26;19999;-82
2024/04/16 10:41:51;;;;;;;1999.90;999.90;;;;;;;;;;5433272;26;19999;-82
2024/04/16 10:44:21;;;;;;;1999.90;999.90;;;;;;;;;;5430363;26;20003;-83
2024/04/16 10:46:49;;;;;;;1999.90;999.90;;;;;;;;;;5422295;26;20000;-83
2024/04/16 10:49:18;;;;;;;1999.90;999.90;;;;;;;;;;5423121;26;20357;-82
2024/04/16 10:51:43;;;;;;;1999.90;999.90;;;;;;;;;;5432052;26;19999;-82
2024/04/16 10:54:11;;;;;;;1999.90;999.90;;;;;;;;;;5429432;26;20018;-79
2024/04/16 10:56:41;;;;;;;1999.90;999.90;;;;;;;;;;5419825;26;20019;-80
2024/04/16 10:59:09;;;;;;;1999.90;999.90;;;;;;;;;;5421918;26;20018;-81
2024/04/16 11:01:38;;;;;;;1999.90;999.90;;;;;;;;;;5424487;26;20006;-81
2024/04/16 11:04:13;;;;;;;1999.90;999.90;;;;;;;;;;5430637;26;20022;-82
2024/04/16 11:06:39;;;;;;;1999.90;999.90;;;;;;;;;;5429411;26;20095;-81
2024/04/16 11:09:08;;;;;;;1999.90;999.90;;;;;;;;;;5427933;26;20074;-81
2024/04/16 11:11:34;;;;;;;1999.90;999.90;;;;;;;;;;5429289;26;20003;-80
2024/04/16 11:14:05;;;;;;;1999.90;999.90;;;;;;;;;;5426460;26;20036;-81
2024/04/16 11:16:30;;;;;;;1999.90;999.90;;;;;;;;;;5429248;26;20010;-81
2024/04/16 11:18:59;;;;;;;1999.90;999.90;;;;;;;;;;5427767;26;20002;-82
2024/04/16 11:21:29;;;;;;;1999.90;999.90;;;;;;;;;;5435202;26;20080;-84
2024/04/16 11:23:58;;;;;;;1999.90;999.90;;;;;;;;;;5421875;26;20015;-81
2024/04/16 11:26:24;;;;;;;1999.90;999.90;;;;;;;;;;5430437;26;20010;-82
2024/04/16 11:28:53;;;;;;;1999.90;999.90;;;;;;;;;;5423398;26;20348;-82
2024/04/16 11:31:21;;;;;;;1999.90;999.90;;;;;;;;;;5428463;26;20078;-81
2024/04/16 11:33:49;;;;;;;1999.90;999.90;;;;;;;;;;5428583;26;20046;-78
2024/04/16 11:36:16;;;;;;;1999.90;999.90;;;;;;;;;;5427077;26;20058;-80
2024/04/16 11:38:45;;;;;;;1999.90;999.90;;;;;;;;;;5431563;26;20541;-80
2024/04/16 11:41:11;;;;;;;1999.90;999.90;;;;;;;;;;5427688;26;20014;-81
2024/04/16 11:43:41;;;;;;;1999.90;999.90;;;;;;;;;;5427959;26;20014;-82
2024/04/16 11:46:07;;;;;;;1999.90;999.90;;;;;;;;;;5429384;26;20003;-82
2024/04/16 11:48:38;;;;;;;1999.90;999.90;;;;;;;;;;5426672;26;20052;-80
2024/04/16 11:51:06;;;;;;;1999.90;999.90;;;;;;;;;;5427817;26;20022;-83
2024/04/16 11:53:37;;;;;;;1999.90;999.90;;;;;;;;;;5427211;26;20007;-82
2024/04/16 11:56:03;;;;;;;1999.90;999.90;;;;;;;;;;5433784;26;20003;-81
2024/04/16 11:58:31;;;;;;;1999.90;999.90;;;;;;;;;;5431082;26;20003;-81
2024/04/16 12:00:57;;;;;;;1999.90;999.90;;;;;;;;;;5428472;26;19998;-79
2024/04/16 12:03:25;;;;;;;1999.90;999.90;;;;;;;;;;5425515;26;20018;-80
2024/04/16 12:05:53;;;;;;;1999.90;999.90;;;;;;;;;;5429724;26;20014;-79
2024/04/16 12:08:22;;;;;;;1999.90;999.90;;;;;;;;;;5432095;26;20003;-79
2024/04/16 12:10:47;;;;;;;1999.90;999.90;;;;;;;;;;5426514;26;20453;-79
2024/04/16 12:13:16;;;;;;;1999.90;999.90;;;;;;;;;;5423798;26;19999;-79
2024/04/16 12:15:41;;;;;;;1999.90;999.90;;;;;;;;;;5427262;26;20010;-78
2024/04/16 12:18:10;;;;;;;1999.90;999.90;;;;;;;;;;5423440;26;19999;-79
2024/04/16 12:20:35;;;;;;;1999.90;999.90;;;;;;;;;;5430303;26;20006;-79
2024/04/16 12:23:06;;;;;;;1999.90;999.90;;;;;;;;;;5432961;26;20100;-82
2024/04/16 12:25:32;;;;;;;1999.90;999.90;;;;;;;;;;5424441;26;20051;-79
2024/04/16 12:28:00;;;;;;;1999.90;999.90;;;;;;;;;;5432911;26;20473;-79
2024/04/16 12:30:28;;;;;;;1999.90;999.90;;;;;;;;;;5427394;26;20015;-80
2024/04/16 12:32:57;;;;;;;1999.90;999.90;;;;;;;;;;5426051;26;20011;-80
2024/04/16 12:35:22;;;;;;;1999.90;999.90;;;;;;;;;;5427352;26;20006;-80
2024/04/16 12:37:50;;;;;;;1999.90;999.90;;;;;;;;;;5427661;26;20471;-79
2024/04/16 12:40:19;;;;;;;1999.90;999.90;;;;;;;;;;5428851;26;20053;-81
2024/04/16 12:42:47;;;;;;;1999.90;999.90;;;;;;;;;;5424458;26;20011;-78
2024/04/16 12:45:12;;;;;;;1999.90;999.90;;;;;;;;;;5429034;26;19999;-79
2024/04/16 12:47:41;;;;;;;1999.90;999.90;;;;;;;;;;5431050;26;20130;-82
2024/04/16 12:50:07;;;;;;;1999.90;999.90;;;;;;;;;;5425741;26;20014;-80
2024/04/16 12:52:35;;;;;;;1999.90;999.90;;;;;;;;;;5427292;26;20102;-79
2024/04/16 12:55:01;;;;;;;1999.90;999.90;;;;;;;;;;5428070;26;20007;-80
2024/04/16 12:57:32;;;;;;;1999.90;999.90;;;;;;;;;;5430184;26;20011;-85
2024/04/16 12:59:57;;;;;;;1999.90;999.90;;;;;;;;;;5426699;26;20003;-80
2024/04/16 13:02:25;;;;;;;1999.90;999.90;;;;;;;;;;5422992;26;20018;-80
2024/04/16 13:04:51;;;;;;;1999.90;999.90;;;;;;;;;;5428516;26;20005;-81
2024/04/16 13:07:20;;;;;;;1999.90;999.90;;;;;;;;;;5431855;26;20002;-82
2024/04/16 13:09:46;;;;;;;1999.90;999.90;;;;;;;;;;5430483;26;20528;-81
2024/04/16 13:12:14;;;;;;;1999.90;999.90;;;;;;;;;;5430575;26;20004;-82
2024/04/16 13:14:42;;;;;;;1999.90;999.90;;;;;;;;;;5425113;26;19996;-81
2024/04/16 13:17:10;;;;;;;1999.90;999.90;;;;;;;;;;5432624;26;20003;-80
2024/04/16 13:19:36;;;;;;;1999.90;999.90;;;;;;;;;;5430230;26;20048;-82
2024/04/16 13:22:05;;;;;;;1999.90;999.90;;;;;;;;;;5427606;26;20007;-81
2024/04/16 13:24:30;;;;;;;1999.90;999.90;;;;;;;;;;5424685;26;20137;-81
2024/04/16 13:26:58;;;;;;;1999.90;999.90;;;;;;;;;;5436695;26;20015;-80
2024/04/16 13:29:26;;;;;;;1999.90;999.90;;;;;;;;;;5436123;26;20112;-81
2024/04/16 13:31:57;;;;;;;1999.90;999.90;;;;;;;;;;5429140;26;20003;-81
2024/04/16 13:34:23;;;;;;;1999.90;999.90;;;;;;;;;;5429371;26;20013;-81
2024/04/16 13:36:51;;;;;;;1999.90;999.90;;;;;;;;;;5432015;26;20039;-82
2024/04/16 13:39:17;;;;;;;1999.90;999.90;;;;;;;;;;5429746;26;20013;-83
2024/04/16 13:41:52;;;;;;;1999.90;999.90;;;;;;;;;;5434216;26;20465;-81
2024/04/16 13:44:17;;;;;;;1999.90;999.90;;;;;;;;;;5430753;26;20003;-81
2024/04/16 13:46:46;;;;;;;1999.90;999.90;;;;;;;;;;5430142;26;20085;-82